Time;durP1;ratioP1;P1;durP2;ratioP2;P2;SDS_P1;SDS_P2;PMS_P1;PMS_P2;Temp;Humidity;BMP_temperature;BMP_pressure;BME280_temperature;BME280_humidity;BME280_pressure;Samples;Min_cycle;Max_cycle;Signal;HPM_P1;HPM_P2
2022/01/08 00:00:55;;;;;;;15.13;11.63;;;1.80;99.90;;;;;;4273263;28;10000667;-70
2022/01/08 00:03:21;;;;;;;15.25;11.13;;;1.80;99.90;;;;;;4961601;28;20019;-70
2022/01/08 00:05:48;;;;;;;14.90;11.35;;;1.80;99.90;;;;;;4962169;28;20498;-70
2022/01/08 00:08:14;;;;;;;16.80;11.80;;;1.80;99.90;;;;;;4957452;28;20042;-70
2022/01/08 00:10:40;;;;;;;16.70;11.80;;;1.90;99.90;;;;;;4966503;28;20069;-70
2022/01/08 00:13:07;;;;;;;18.52;12.25;;;1.80;99.90;;;;;;4961645;28;20027;-69
2022/01/08 00:15:33;;;;;;;17.80;11.43;;;1.90;99.90;;;;;;4961179;28;20818;-70
2022/01/08 00:17:59;;;;;;;15.30;11.32;;;1.90;99.90;;;;;;4953865;28;20035;-70
2022/01/08 00:20:25;;;;;;;16.05;11.50;;;1.90;99.90;;;;;;4959704;28;20031;-70
2022/01/08 00:22:52;;;;;;;16.38;11.38;;;1.90;99.90;;;;;;4961208;28;20476;-70
2022/01/08 00:25:18;;;;;;;17.88;11.73;;;1.90;99.90;;;;;;4960895;28;20023;-70
2022/01/08 00:27:43;;;;;;;17.40;11.88;;;1.90;99.90;;;;;;4963457;28;20118;-70
2022/01/08 00:30:09;;;;;;;14.70;11.77;;;1.90;99.90;;;;;;4957768;28;20031;-69
2022/01/08 00:32:35;;;;;;;17.05;12.30;;;1.90;99.90;;;;;;4957303;28;20033;-70
2022/01/08 00:35:01;;;;;;;14.88;12.18;;;1.90;99.90;;;;;;4955777;28;20027;-70
2022/01/08 00:37:27;;;;;;;16.98;12.45;;;1.90;99.90;;;;;;4957853;28;20030;-70
2022/01/08 00:39:52;;;;;;;17.35;12.57;;;1.90;99.90;;;;;;4959681;28;20031;-69
2022/01/08 00:42:18;;;;;;;20.58;13.20;;;1.90;99.90;;;;;;4961585;28;20122;-69
2022/01/08 00:44:44;;;;;;;17.65;12.95;;;1.90;99.90;;;;;;4965049;28;20042;-69
2022/01/08 00:47:09;;;;;;;18.05;13.70;;;1.90;99.90;;;;;;4955961;28;20059;-69
2022/01/08 00:49:36;;;;;;;18.23;13.60;;;1.90;99.90;;;;;;4963665;28;20030;-69
2022/01/08 00:52:01;;;;;;;18.60;13.10;;;1.90;99.90;;;;;;4956250;28;20105;-69
2022/01/08 00:54:27;;;;;;;16.90;12.95;;;1.90;99.90;;;;;;4963377;28;20089;-69
2022/01/08 00:56:53;;;;;;;19.38;13.45;;;1.80;99.90;;;;;;4961856;28;20026;-69
2022/01/08 00:59:18;;;;;;;18.75;13.45;;;1.90;99.90;;;;;;4961947;28;20026;-69
2022/01/08 01:01:44;;;;;;;20.08;14.68;;;1.80;99.90;;;;;;4959477;28;20067;-69
2022/01/08 01:04:09;;;;;;;19.33;14.75;;;1.90;99.90;;;;;;4962881;28;20464;-69
2022/01/08 01:06:35;;;;;;;23.95;14.95;;;1.90;99.90;;;;;;4961646;28;20034;-69
2022/01/08 01:09:01;;;;;;;24.48;14.63;;;1.90;99.90;;;;;;4960879;28;20043;-69
2022/01/08 01:11:26;;;;;;;20.08;14.20;;;1.80;99.90;;;;;;4961216;28;20456;-69
2022/01/08 01:13:52;;;;;;;19.20;14.20;;;1.80;99.90;;;;;;4959106;28;20115;-69
2022/01/08 01:16:19;;;;;;;22.63;14.52;;;1.90;99.90;;;;;;4961295;28;20058;-69
2022/01/08 01:18:44;;;;;;;22.75;15.55;;;1.80;99.90;;;;;;4964787;28;20023;-70
2022/01/08 01:21:10;;;;;;;23.27;14.80;;;1.80;99.90;;;;;;4962796;28;20102;-70
2022/01/08 01:23:41;;;;;;;21.88;14.85;;;1.90;99.90;;;;;;4952713;28;20023;-70
2022/01/08 01:26:11;;;;;;;22.92;14.73;;;1.80;99.90;;;;;;4957303;28;20067;-70
2022/01/08 01:28:47;;;;;;;22.48;15.30;;;1.90;99.90;;;;;;4957215;28;20676;-70
2022/01/08 01:47:14;;;;;;;19.17;14.10;;;1.90;99.90;;;;;;4971026;28;20052;-70
2022/01/08 01:49:42;;;;;;;19.15;14.90;;;1.90;99.90;;;;;;4964587;28;20535;-70
2022/01/08 01:52:10;;;;;;;18.77;14.13;;;2.00;99.90;;;;;;4961039;28;20039;-69
2022/01/08 01:54:37;;;;;;;19.15;14.75;;;2.00;99.90;;;;;;4959989;28;20037;-69
2022/01/08 01:57:05;;;;;;;18.65;14.40;;;2.00;99.90;;;;;;4955196;28;20146;-69
2022/01/08 01:59:32;;;;;;;19.52;14.40;;;2.00;99.90;;;;;;4968975;28;20030;-69
2022/01/08 02:01:58;;;;;;;17.83;13.77;;;2.00;99.90;;;;;;4967967;28;20053;-69
2022/01/08 02:04:25;;;;;;;19.00;14.43;;;2.00;99.90;;;;;;4967695;28;20034;-69
2022/01/08 02:06:50;;;;;;;21.17;14.23;;;2.00;99.90;;;;;;4952828;28;20019;-69
2022/01/08 02:09:16;;;;;;;21.38;14.82;;;2.00;99.90;;;;;;4964421;28;20043;-69
2022/01/08 02:11:58;;;;;;;19.05;14.30;;;2.00;99.90;;;;;;4977263;28;20039;-69
2022/01/08 02:14:24;;;;;;;19.38;14.60;;;2.00;99.90;;;;;;4962954;28;20054;-69
2022/01/08 02:16:50;;;;;;;21.25;15.13;;;2.00;99.90;;;;;;4968761;28;20034;-70
2022/01/08 02:19:16;;;;;;;20.55;14.80;;;2.00;99.90;;;;;;4967777;28;20109;-69
2022/01/08 02:21:54;;;;;;;24.33;14.55;;;2.00;99.90;;;;;;4968085;28;20031;-70
2022/01/08 02:24:20;;;;;;;20.92;14.27;;;2.00;99.90;;;;;;4962219;28;20082;-69
2022/01/08 02:26:46;;;;;;;19.27;14.43;;;2.00;99.90;;;;;;4965768;28;20023;-70
2022/01/08 02:29:12;;;;;;;19.88;14.10;;;2.00;99.90;;;;;;4961612;28;20487;-69
2022/01/08 02:31:39;;;;;;;21.17;14.73;;;2.00;99.90;;;;;;4964398;28;20133;-69
2022/01/08 02:34:05;;;;;;;22.85;14.55;;;2.00;99.90;;;;;;4958437;28;20031;-70
2022/01/08 02:36:31;;;;;;;18.30;13.55;;;2.00;99.90;;;;;;4963806;28;20473;-70
2022/01/08 02:38:57;;;;;;;20.10;13.70;;;2.00;99.90;;;;;;4960323;28;20027;-69
2022/01/08 02:41:23;;;;;;;21.95;14.00;;;2.00;99.90;;;;;;4967107;28;20438;-70
2022/01/08 02:43:53;;;;;;;24.35;14.85;;;2.00;99.90;;;;;;4965506;28;20085;-70
2022/01/08 02:46:19;;;;;;;18.83;14.25;;;1.90;99.90;;;;;;4953531;28;20061;-70
2022/01/08 02:48:45;;;;;;;20.00;14.43;;;1.90;99.90;;;;;;4959311;28;20086;-70
2022/01/08 02:51:10;;;;;;;20.02;14.68;;;1.90;99.90;;;;;;4956223;28;20031;-70
2022/01/08 02:53:36;;;;;;;20.48;14.20;;;1.90;99.90;;;;;;4969003;28;20105;-70
2022/01/08 02:56:02;;;;;;;19.52;14.05;;;1.90;99.90;;;;;;4968800;28;20086;-70
2022/01/08 02:58:28;;;;;;;19.75;13.75;;;1.90;99.90;;;;;;4969863;28;20026;-70
2022/01/08 03:00:55;;;;;;;18.15;13.35;;;1.90;99.90;;;;;;4965907;28;20031;-70
2022/01/08 03:03:21;;;;;;;20.92;13.38;;;1.90;99.90;;;;;;4966604;28;20030;-70
2022/01/08 03:05:46;;;;;;;19.60;13.63;;;1.90;99.90;;;;;;4966380;28;20118;-70
2022/01/08 03:08:12;;;;;;;20.15;14.30;;;1.80;99.90;;;;;;4959453;28;20656;-69
2022/01/08 03:10:38;;;;;;;20.23;13.80;;;1.80;99.90;;;;;;4963979;28;20036;-69
2022/01/08 03:13:04;;;;;;;20.17;14.10;;;1.70;99.90;;;;;;4964702;28;20039;-69
2022/01/08 03:15:33;;;;;;;20.75;14.40;;;1.70;99.90;;;;;;4963213;28;20479;-69
2022/01/08 03:17:59;;;;;;;21.33;14.23;;;1.70;99.90;;;;;;4967927;28;20027;-69
2022/01/08 03:20:24;;;;;;;21.48;14.93;;;1.70;99.90;;;;;;4969627;28;20126;-69
2022/01/08 03:22:51;;;;;;;22.80;15.07;;;1.70;99.90;;;;;;4964296;28;20019;-70
2022/01/08 03:25:17;;;;;;;21.60;15.00;;;1.70;99.90;;;;;;4957287;28;20057;-69
2022/01/08 03:27:43;;;;;;;20.08;14.90;;;1.70;99.90;;;;;;4956809;28;20030;-69
2022/01/08 03:30:12;;;;;;;23.83;15.27;;;1.70;99.90;;;;;;4966672;28;20467;-69
2022/01/08 03:32:38;;;;;;;20.58;14.48;;;1.70;99.90;;;;;;4966504;28;20292;-69
2022/01/08 03:35:04;;;;;;;23.67;15.55;;;1.70;99.90;;;;;;4961422;28;20113;-70
2022/01/08 03:37:30;;;;;;;21.73;14.63;;;1.80;99.90;;;;;;4957952;28;20562;-70
2022/01/08 03:39:56;;;;;;;22.60;15.48;;;1.70;99.90;;;;;;4970350;28;20040;-70
2022/01/08 03:42:22;;;;;;;24.98;15.35;;;1.70;99.90;;;;;;4974087;28;20114;-70
2022/01/08 03:44:47;;;;;;;20.42;14.55;;;1.60;99.90;;;;;;4966424;28;20106;-70
2022/01/08 03:49:48;;;;;;;20.23;13.98;;;1.70;99.90;;;;;;4960705;28;20031;-70
2022/01/08 03:52:14;;;;;;;21.20;15.00;;;1.70;99.90;;;;;;4959480;28;20076;-70
2022/01/08 03:54:40;;;;;;;19.15;14.05;;;1.70;99.90;;;;;;4955428;28;20392;-70
2022/01/08 03:57:06;;;;;;;21.17;15.07;;;1.60;99.90;;;;;;4952893;28;20031;-70
2022/01/08 03:59:31;;;;;;;21.80;14.82;;;1.60;99.90;;;;;;4967016;28;20558;-69
2022/01/08 04:01:57;;;;;;;21.75;15.45;;;1.50;99.90;;;;;;4965638;28;20031;-70
2022/01/08 04:04:23;;;;;;;22.35;14.95;;;1.50;99.90;;;;;;4963966;28;20034;-70
2022/01/08 04:06:49;;;;;;;23.20;15.70;;;1.50;99.90;;;;;;4960141;28;20059;-70
2022/01/08 04:09:14;;;;;;;21.70;15.52;;;1.50;99.90;;;;;;4961740;28;20125;-70
2022/01/08 04:11:40;;;;;;;22.00;15.85;;;1.50;99.90;;;;;;4951365;28;20035;-70
2022/01/08 04:14:06;;;;;;;21.13;14.57;;;1.50;99.90;;;;;;4958750;28;20035;-70
2022/01/08 04:16:35;;;;;;;17.63;13.23;;;1.50;99.90;;;;;;4969191;28;20085;-70
2022/01/08 04:19:01;;;;;;;21.75;14.48;;;1.50;99.90;;;;;;4964877;28;20034;-70
2022/01/08 04:24:05;;;;;;;17.67;13.80;;;1.40;99.90;;;;;;4963534;28;20022;-69
2022/01/08 04:26:30;;;;;;;20.17;14.73;;;1.40;99.90;;;;;;4962517;28;20117;-69
2022/01/08 04:28:56;;;;;;;21.15;14.25;;;1.40;99.90;;;;;;4964003;28;20362;-69
2022/01/08 04:31:23;;;;;;;20.42;14.32;;;1.40;99.90;;;;;;4961472;28;20164;-69
2022/01/08 04:33:49;;;;;;;20.60;14.35;;;1.30;99.90;;;;;;4960909;28;20035;-70
2022/01/08 04:36:15;;;;;;;22.63;16.25;;;1.30;99.90;;;;;;4967434;28;20053;-69
2022/01/08 04:38:41;;;;;;;20.08;14.95;;;1.30;99.90;;;;;;4963759;28;20487;-70
2022/01/08 04:41:06;;;;;;;20.73;15.40;;;1.30;99.90;;;;;;4963187;28;20031;-69
2022/01/08 04:43:33;;;;;;;21.13;14.10;;;1.30;99.90;;;;;;4958875;28;20038;-70
2022/01/08 04:45:59;;;;;;;20.08;14.25;;;1.30;99.90;;;;;;4962981;28;20035;-70
2022/01/08 04:48:24;;;;;;;23.75;15.48;;;1.30;99.90;;;;;;4957451;28;20062;-70
2022/01/08 04:50:50;;;;;;;21.98;15.40;;;1.30;99.90;;;;;;4952697;28;20023;-70
2022/01/08 04:53:16;;;;;;;21.65;15.38;;;1.20;99.90;;;;;;4961749;28;20038;-70
2022/01/08 04:55:41;;;;;;;23.65;16.48;;;1.30;99.90;;;;;;4957312;28;20505;-70
2022/01/08 04:58:07;;;;;;;23.30;16.98;;;1.20;99.90;;;;;;4959869;28;20019;-70
2022/01/08 05:00:33;;;;;;;22.77;15.93;;;1.30;99.90;;;;;;4963448;28;20170;-70
2022/01/08 05:02:59;;;;;;;21.20;16.00;;;1.30;99.90;;;;;;4957059;28;20083;-70
2022/01/08 05:05:26;;;;;;;22.83;16.10;;;1.30;99.90;;;;;;4966354;28;20018;-69
2022/01/08 05:07:52;;;;;;;25.08;16.73;;;1.30;99.90;;;;;;4963920;28;20034;-70
2022/01/08 05:10:18;;;;;;;24.52;16.65;;;1.30;99.90;;;;;;4960055;28;20516;-70
2022/01/08 05:12:44;;;;;;;22.83;16.73;;;1.30;99.90;;;;;;4963748;28;20031;-70
2022/01/08 05:15:10;;;;;;;24.95;17.25;;;1.30;99.90;;;;;;4965654;28;20027;-70
2022/01/08 05:17:39;;;;;;;24.52;17.85;;;1.30;99.90;;;;;;4958249;28;20046;-70
2022/01/08 05:20:07;;;;;;;27.20;18.00;;;1.20;99.90;;;;;;4966159;28;20031;-70
2022/01/08 05:22:59;;;;;;;26.92;18.58;;;1.20;99.90;;;;;;4966554;28;20035;-70
2022/01/08 05:25:26;;;;;;;25.15;17.30;;;1.20;99.90;;;;;;4957079;28;20540;-70
2022/01/08 05:27:52;;;;;;;23.20;16.42;;;1.20;99.90;;;;;;4966796;28;20027;-70
2022/01/08 05:30:20;;;;;;;24.83;16.63;;;1.20;99.90;;;;;;4964057;28;20022;-70
2022/01/08 05:32:47;;;;;;;22.58;16.17;;;1.10;99.90;;;;;;4963664;28;20034;-70
2022/01/08 05:35:13;;;;;;;26.80;16.75;;;1.20;99.90;;;;;;4966981;28;20031;-70
2022/01/08 05:37:40;;;;;;;24.30;16.83;;;1.20;99.90;;;;;;4962604;28;20039;-69
2022/01/08 05:40:06;;;;;;;25.42;17.20;;;1.20;99.90;;;;;;4965521;28;20366;-69
2022/01/08 05:42:32;;;;;;;26.85;17.67;;;1.20;99.90;;;;;;4961358;28;20447;-70
2022/01/08 05:44:58;;;;;;;26.70;17.45;;;1.20;99.90;;;;;;4956266;28;20022;-69
2022/01/08 05:47:27;;;;;;;26.48;17.38;;;1.20;99.90;;;;;;4957186;28;20483;-70
2022/01/08 05:49:53;;;;;;;29.00;17.38;;;1.20;99.90;;;;;;4962730;28;20042;-69
2022/01/08 05:52:18;;;;;;;27.05;17.63;;;1.30;99.90;;;;;;4964522;28;20027;-70
2022/01/08 05:54:44;;;;;;;39.25;23.30;;;1.30;99.90;;;;;;4955145;28;20288;-70
2022/01/08 05:57:09;;;;;;;46.55;25.58;;;1.30;99.90;;;;;;4965712;28;20034;-70
2022/01/08 05:59:35;;;;;;;46.15;25.80;;;1.30;99.90;;;;;;4961462;28;20491;-70
2022/01/08 06:02:00;;;;;;;37.35;23.90;;;1.30;99.90;;;;;;4957657;28;20023;-70
2022/01/08 06:04:26;;;;;;;42.00;24.95;;;1.30;99.90;;;;;;4955646;28;20023;-70
2022/01/08 06:06:52;;;;;;;43.13;25.27;;;1.30;99.90;;;;;;4959048;28;20114;-70
2022/01/08 06:09:18;;;;;;;34.22;21.25;;;1.40;99.90;;;;;;4961050;28;20046;-70
2022/01/08 06:11:44;;;;;;;34.60;22.98;;;1.30;99.90;;;;;;4959820;28;20031;-70
2022/01/08 06:14:09;;;;;;;33.20;21.67;;;1.30;99.90;;;;;;4959722;28;20094;-70
2022/01/08 06:16:35;;;;;;;32.17;20.63;;;1.30;99.90;;;;;;4962383;28;20035;-70
2022/01/08 06:19:07;;;;;;;36.08;23.75;;;1.30;99.90;;;;;;4955637;28;20042;-70
2022/01/08 06:21:33;;;;;;;27.33;17.67;;;1.40;99.90;;;;;;4615299;28;10000121;-71
2022/01/08 06:23:58;;;;;;;32.78;21.48;;;1.30;99.90;;;;;;4955235;28;20050;-70
2022/01/08 06:26:24;;;;;;;36.35;21.10;;;;;;;;;;4956956;28;20031;-70
2022/01/08 06:28:51;;;;;;;28.83;20.45;;;1.40;99.90;;;;;;4953218;28;20070;-70
2022/01/08 06:31:19;;;;;;;35.55;23.25;;;1.30;99.90;;;;;;4962109;28;20082;-70
2022/01/08 06:33:45;;;;;;;30.08;21.85;;;1.20;99.90;;;;;;4956880;28;20035;-70
2022/01/08 06:36:11;;;;;;;30.95;20.65;;;1.20;99.90;;;;;;4957960;28;20035;-70
2022/01/08 06:38:37;;;;;;;29.52;19.88;;;1.20;99.90;;;;;;4961970;28;20031;-70
2022/01/08 06:41:02;;;;;;;29.73;19.75;;;1.20;99.90;;;;;;4959314;28;20132;-70
2022/01/08 06:43:28;;;;;;;31.27;19.67;;;1.20;99.90;;;;;;4957540;28;20043;-71
2022/01/08 06:45:54;;;;;;;30.17;19.83;;;1.20;99.90;;;;;;4950251;28;20026;-70
2022/01/08 06:48:19;;;;;;;31.40;19.80;;;1.30;99.90;;;;;;4960294;28;20162;-71
2022/01/08 06:50:45;;;;;;;39.63;24.73;;;1.30;99.90;;;;;;4959223;28;20073;-70
2022/01/08 06:53:10;;;;;;;35.78;22.20;;;1.30;99.90;;;;;;4964002;28;20035;-70
2022/01/08 06:55:36;;;;;;;40.47;25.95;;;1.30;99.90;;;;;;4954680;28;20405;-70
2022/01/08 06:58:03;;;;;;;32.72;21.15;;;1.30;99.90;;;;;;4959339;28;20034;-70
2022/01/08 07:00:28;;;;;;;34.17;21.50;;;1.30;99.90;;;;;;4965096;28;20031;-70
2022/01/08 07:02:54;;;;;;;39.35;24.02;;;1.30;99.90;;;;;;4964279;28;20038;-70
2022/01/08 07:05:20;;;;;;;32.67;22.13;;;1.30;99.90;;;;;;4962242;28;20081;-70
2022/01/08 07:07:46;;;;;;;31.77;19.98;;;1.30;99.90;;;;;;4965386;28;20041;-70
2022/01/08 07:10:12;;;;;;;30.10;18.45;;;1.30;99.90;;;;;;4962449;28;20035;-70
2022/01/08 07:12:38;;;;;;;27.60;17.58;;;1.20;99.90;;;;;;4962612;28;20034;-70
2022/01/08 07:15:04;;;;;;;24.83;16.17;;;1.20;99.90;;;;;;4966068;28;20489;-70
2022/01/08 07:17:30;;;;;;;24.45;17.13;;;1.20;99.90;;;;;;4962986;28;20041;-70
2022/01/08 07:19:55;;;;;;;22.90;16.20;;;1.10;99.90;;;;;;4959305;28;20034;-70
2022/01/08 07:22:21;;;;;;;25.05;16.83;;;1.20;99.90;;;;;;4958232;28;20045;-70
2022/01/08 07:24:47;;;;;;;21.80;14.93;;;1.20;99.90;;;;;;4964260;28;20034;-70
2022/01/08 07:27:13;;;;;;;23.55;15.55;;;1.10;99.90;;;;;;4966502;28;20110;-70
2022/01/08 07:29:39;;;;;;;24.98;15.27;;;1.20;99.90;;;;;;4961486;28;20035;-70
2022/01/08 07:32:05;;;;;;;22.30;14.85;;;1.20;99.90;;;;;;4957634;28;20516;-70
2022/01/08 07:34:31;;;;;;;21.20;14.23;;;1.10;99.90;;;;;;4965026;28;20023;-70
2022/01/08 07:36:56;;;;;;;24.58;16.55;;;1.10;99.90;;;;;;4960959;28;20034;-70
2022/01/08 07:39:22;;;;;;;25.05;17.48;;;1.00;99.90;;;;;;4958034;28;20117;-70
2022/01/08 07:41:48;;;;;;;25.27;16.55;;;1.00;99.90;;;;;;4965963;28;20030;-70
2022/01/08 07:44:14;;;;;;;24.83;16.75;;;1.00;99.90;;;;;;4966612;28;20026;-70
2022/01/08 07:46:40;;;;;;;26.52;17.92;;;1.10;99.90;;;;;;4955441;28;20074;-70
2022/01/08 07:49:05;;;;;;;25.42;16.38;;;1.10;99.90;;;;;;4963566;28;20041;-70
2022/01/08 07:51:31;;;;;;;25.80;16.33;;;1.10;99.90;;;;;;4955683;28;20049;-70
2022/01/08 07:53:56;;;;;;;27.50;16.70;;;1.10;99.90;;;;;;4968832;28;20035;-70
2022/01/08 07:56:22;;;;;;;25.63;16.05;;;1.10;99.90;;;;;;4961479;28;20106;-70
2022/01/08 07:58:48;;;;;;;26.30;15.57;;;1.10;99.90;;;;;;4962671;28;20023;-70
2022/01/08 08:01:13;;;;;;;25.05;15.88;;;1.20;99.90;;;;;;4959688;28;20521;-70
2022/01/08 08:03:39;;;;;;;24.70;16.10;;;1.20;99.90;;;;;;4955374;28;20574;-69
2022/01/08 08:06:10;;;;;;;26.45;16.00;;;1.20;99.90;;;;;;4960548;28;20130;-69
2022/01/08 08:08:35;;;;;;;23.58;15.68;;;1.20;99.90;;;;;;4956325;28;20122;-69
2022/01/08 08:11:01;;;;;;;24.65;15.52;;;1.10;99.90;;;;;;4954354;28;20031;-69
2022/01/08 08:13:27;;;;;;;26.83;16.33;;;1.10;99.90;;;;;;4961295;28;20035;-70
2022/01/08 08:15:52;;;;;;;49.15;24.80;;;1.10;99.90;;;;;;4957137;28;20081;-70
2022/01/08 08:18:18;;;;;;;55.05;29.70;;;1.10;99.90;;;;;;4967544;28;20054;-70
2022/01/08 08:20:44;;;;;;;36.08;23.38;;;1.10;99.90;;;;;;4965214;28;20144;-69
2022/01/08 08:23:09;;;;;;;33.45;21.48;;;1.10;99.90;;;;;;4960307;28;20065;-69
2022/01/08 08:25:35;;;;;;;25.63;18.20;;;1.10;99.90;;;;;;4958825;28;20034;-70
2022/01/08 08:28:02;;;;;;;23.95;16.05;;;1.10;99.90;;;;;;4956258;28;20574;-71
2022/01/08 08:30:28;;;;;;;24.23;15.18;;;1.10;99.90;;;;;;4964497;28;20507;-71
2022/01/08 08:32:54;;;;;;;21.08;14.48;;;1.10;99.90;;;;;;4951805;28;20037;-71
2022/01/08 08:35:20;;;;;;;25.17;14.95;;;1.10;99.90;;;;;;4960222;28;20027;-71
2022/01/08 08:37:45;;;;;;;21.40;13.88;;;1.20;99.90;;;;;;4957292;28;20613;-71
2022/01/08 08:40:13;;;;;;;22.50;13.25;;;1.20;99.90;;;;;;4957743;28;20209;-71
2022/01/08 08:42:40;;;;;;;21.85;13.18;;;1.30;99.90;;;;;;4959281;28;20129;-71
2022/01/08 08:45:07;;;;;;;22.30;12.70;;;1.30;99.90;;;;;;4975496;28;20028;-71
2022/01/08 08:47:33;;;;;;;20.27;12.55;;;1.30;99.90;;;;;;4958624;28;20461;-71
2022/01/08 08:49:59;;;;;;;21.50;14.05;;;1.30;99.90;;;;;;4950571;28;20114;-72
2022/01/08 08:52:25;;;;;;;21.40;13.57;;;1.30;99.90;;;;;;4952414;28;20070;-71
2022/01/08 08:54:51;;;;;;;23.60;14.57;;;1.20;99.90;;;;;;4961188;28;20038;-71
2022/01/08 08:57:17;;;;;;;19.85;13.32;;;1.30;99.90;;;;;;4960823;28;20081;-71
2022/01/08 08:59:42;;;;;;;21.05;12.60;;;1.40;99.90;;;;;;4959517;28;20443;-71
2022/01/08 09:02:09;;;;;;;22.95;13.68;;;1.40;99.90;;;;;;4957682;28;20044;-71
2022/01/08 09:04:36;;;;;;;19.08;12.55;;;1.50;99.90;;;;;;4959616;28;20027;-72
2022/01/08 09:07:03;;;;;;;21.02;12.48;;;1.70;99.90;;;;;;4952625;28;20031;-71
2022/01/08 09:09:29;;;;;;;23.13;13.20;;;1.80;99.90;;;;;;4953906;28;20138;-71
2022/01/08 09:11:55;;;;;;;26.05;13.85;;;1.90;99.90;;;;;;4951335;28;20054;-72
2022/01/08 09:14:21;;;;;;;22.02;13.90;;;2.00;99.90;;;;;;4961287;28;20486;-71
2022/01/08 09:16:53;;;;;;;23.85;14.65;;;2.10;99.90;;;;;;4957849;28;20035;-72
2022/01/08 09:19:19;;;;;;;22.13;14.38;;;2.20;99.90;;;;;;4950110;28;20599;-72
2022/01/08 09:21:46;;;;;;;22.48;14.27;;;2.30;99.90;;;;;;4953389;28;20136;-73
2022/01/08 09:24:12;;;;;;;22.75;13.25;;;2.40;99.90;;;;;;4953367;28;20032;-73
2022/01/08 09:26:38;;;;;;;18.40;11.80;;;2.40;99.90;;;;;;4961743;28;20286;-73
2022/01/08 09:29:04;;;;;;;22.27;14.32;;;2.40;99.90;;;;;;4966168;28;20054;-72
2022/01/08 09:31:32;;;;;;;19.58;13.48;;;2.50;99.90;;;;;;4963857;28;20521;-72
2022/01/08 09:33:59;;;;;;;19.33;12.63;;;2.50;99.90;;;;;;4966209;28;20028;-73
2022/01/08 09:36:25;;;;;;;18.60;12.80;;;2.50;99.90;;;;;;4964455;28;20690;-73
2022/01/08 09:38:50;;;;;;;19.40;10.38;;;2.50;99.90;;;;;;4962185;28;20166;-73
2022/01/08 09:41:16;;;;;;;15.23;10.30;;;2.60;99.90;;;;;;4947547;28;20042;-72
2022/01/08 09:43:42;;;;;;;18.45;10.88;;;2.60;99.90;;;;;;4957688;28;20506;-73
2022/01/08 09:46:08;;;;;;;16.33;9.07;;;2.60;99.90;;;;;;4954427;28;20082;-72
2022/01/08 09:48:33;;;;;;;13.75;9.10;;;2.60;99.90;;;;;;4963157;28;20038;-72
2022/01/08 09:50:59;;;;;;;17.23;9.40;;;2.60;99.90;;;;;;4960512;28;20035;-72
2022/01/08 09:53:25;;;;;;;13.73;10.30;;;2.60;99.90;;;;;;4951161;28;20038;-73
2022/01/08 09:55:50;;;;;;;14.48;9.18;;;2.60;99.90;;;;;;4959948;28;20042;-72
2022/01/08 09:58:16;;;;;;;18.35;10.45;;;2.70;99.90;;;;;;4965904;28;20022;-72
2022/01/08 10:00:45;;;;;;;14.75;10.15;;;2.70;99.90;;;;;;4958322;28;20110;-71
2022/01/08 10:03:19;;;;;;;16.77;10.13;;;2.70;99.90;;;;;;4955534;28;20369;-71
2022/01/08 10:05:45;;;;;;;20.95;9.32;;;2.70;99.90;;;;;;4967719;28;20050;-71
2022/01/08 10:08:12;;;;;;;16.15;8.73;;;2.70;99.90;;;;;;4959213;28;20038;-70
2022/01/08 10:10:38;;;;;;;20.35;8.50;;;2.80;99.90;;;;;;4960572;28;20049;-71
2022/01/08 10:13:04;;;;;;;15.68;8.30;;;2.80;99.90;;;;;;4966098;28;20300;-71
2022/01/08 10:18:30;;;;;;;15.93;8.77;;;2.80;99.90;;;;;;4958571;28;20178;-71
2022/01/08 10:20:56;;;;;;;16.27;8.95;;;2.90;99.90;;;;;;4963391;28;20095;-70
2022/01/08 10:23:31;;;;;;;14.85;8.18;;;2.90;99.90;;;;;;4949730;28;20523;-71
2022/01/08 10:26:04;;;;;;;16.00;7.97;;;2.90;99.90;;;;;;4952802;28;20035;-70
2022/01/08 10:28:42;;;;;;;18.10;8.27;;;3.00;99.90;;;;;;4959013;28;20108;-71
2022/01/08 10:31:23;;;;;;;15.80;6.85;;;3.00;99.90;;;;;;4956013;28;20034;-71
2022/01/08 10:34:11;;;;;;;11.25;7.15;;;3.00;99.90;;;;;;4962956;28;20034;-70
2022/01/08 10:36:42;;;;;;;13.45;6.95;;;3.00;99.90;;;;;;4973211;28;20434;-70
2022/01/08 10:39:19;;;;;;;12.98;6.25;;;3.00;99.90;;;;;;4961190;28;20046;-70
2022/01/08 10:41:47;;;;;;;17.92;6.15;;;3.10;99.90;;;;;;4959484;28;20427;-70
2022/01/08 10:44:30;;;;;;;12.05;5.97;;;3.10;99.90;;;;;;4958812;28;20031;-71
2022/01/08 10:47:00;;;;;;;11.52;5.90;;;3.10;99.90;;;;;;4957800;28;20049;-68
2022/01/08 10:49:40;;;;;;;14.05;5.90;;;3.20;99.90;;;;;;4958785;28;20514;-71
2022/01/08 10:52:08;;;;;;;14.02;6.30;;;3.20;99.90;;;;;;4948597;28;20038;-70
2022/01/08 10:54:36;;;;;;;15.35;6.20;;;3.20;99.90;;;;;;4964580;28;20046;-71
2022/01/08 10:57:04;;;;;;;13.88;5.95;;;3.30;99.90;;;;;;4967606;28;20438;-71
2022/01/08 10:59:31;;;;;;;16.13;6.30;;;3.30;99.90;;;;;;4959034;28;20416;-71
2022/01/08 11:02:08;;;;;;;14.32;6.85;;;3.30;99.90;;;;;;4964102;28;20023;-70
2022/01/08 11:04:46;;;;;;;13.77;7.07;;;3.40;99.90;;;;;;4966896;28;20383;-70
2022/01/08 11:07:22;;;;;;;12.98;5.85;;;3.50;99.90;;;;;;4970514;28;20534;-70
2022/01/08 11:09:54;;;;;;;15.75;6.80;;;3.50;99.90;;;;;;4949739;28;20051;-70
2022/01/08 11:12:29;;;;;;;17.52;7.53;;;3.50;99.90;;;;;;4967604;28;20963;-70
2022/01/08 11:15:22;;;;;;;13.88;6.50;;;3.50;99.90;;;;;;4969961;28;20038;-70
2022/01/08 11:17:55;;;;;;;17.65;6.50;;;;;;;;;;4967432;28;20030;-70
2022/01/08 11:20:21;;;;;;;14.32;6.38;;;;;;;;;;4958179;28;20031;-70
2022/01/08 11:22:48;;;;;;;15.27;7.32;;;;;;;;;;4956103;28;20035;-70
2022/01/08 11:25:18;;;;;;;14.68;6.72;;;;;;;;;;4955992;28;20126;-70
2022/01/08 11:27:44;;;;;;;17.70;7.32;;;;;;;;;;4960344;28;20101;-70
2022/01/08 11:30:13;;;;;;;13.77;5.60;;;;;;;;;;4965187;28;20403;-70
2022/01/08 11:32:40;;;;;;;13.30;6.80;;;;;;;;;;4967855;28;20042;-70
2022/01/08 11:35:07;;;;;;;13.60;7.05;;;;;;;;;;4968525;28;20063;-70
2022/01/08 11:37:33;;;;;;;13.93;7.15;;;;;;;;;;4966531;28;20097;-70
2022/01/08 11:40:05;;;;;;;15.38;7.25;;;;;;;;;;4956394;28;20033;-71
2022/01/08 11:42:33;;;;;;;14.90;7.40;;;;;;;;;;4981410;28;20382;-70
2022/01/08 11:45:00;;;;;;;14.73;8.45;;;;;;;;;;4955619;28;20515;-70
2022/01/08 11:47:29;;;;;;;15.95;7.10;;;;;;;;;;4966227;28;20097;-70
2022/01/08 11:49:56;;;;;;;15.88;8.13;;;;;;;;;;4968916;28;20062;-70
2022/01/08 11:52:22;;;;;;;14.82;8.52;;;;;;;;;;4968176;28;20097;-70
2022/01/08 11:54:50;;;;;;;20.30;10.02;;;;;;;;;;4967502;28;20034;-69
2022/01/08 11:57:17;;;;;;;19.73;10.25;;;;;;;;;;4967957;28;20458;-70
2022/01/08 11:59:43;;;;;;;22.10;12.07;;;;;;;;;;4953870;28;20046;-70
2022/01/08 12:02:12;;;;;;;22.52;11.15;;;4.50;99.90;;;;;;4977733;28;20404;-70
2022/01/08 12:04:40;;;;;;;20.88;10.07;;;4.50;99.90;;;;;;4966480;28;20037;-70
2022/01/08 12:07:36;;;;;;;18.90;10.73;;;4.30;99.90;;;;;;4968484;28;20034;-70
2022/01/08 12:10:14;;;;;;;22.98;11.25;;;4.20;99.90;;;;;;4966364;28;20066;-70
2022/01/08 12:13:00;;;;;;;23.80;10.40;;;4.10;99.90;;;;;;4955772;28;20058;-70
2022/01/08 12:15:41;;;;;;;17.88;10.40;;;4.00;99.90;;;;;;4965562;28;20526;-70
2022/01/08 12:18:20;;;;;;;22.67;10.70;;;3.90;99.90;;;;;;4954519;28;20039;-70
2022/01/08 12:20:56;;;;;;;18.00;9.73;;;3.80;99.90;;;;;;4960384;28;20566;-70
2022/01/08 12:23:30;;;;;;;20.77;11.75;;;3.70;99.90;;;;;;4966136;28;20037;-70
2022/01/08 12:26:00;;;;;;;18.38;11.45;;;3.70;99.90;;;;;;4967428;28;20557;-70
2022/01/08 12:28:45;;;;;;;28.63;13.65;;;3.60;99.90;;;;;;4966620;28;20042;-70
2022/01/08 12:31:39;;;;;;;26.45;12.52;;;3.50;99.90;;;;;;4953293;28;20035;-70
2022/01/08 12:34:46;;;;;;;26.67;12.75;;;3.40;99.90;;;;;;4958200;28;20050;-70
2022/01/08 12:37:15;;;;;;;25.27;12.73;;;3.40;99.90;;;;;;4934095;28;20039;-71
2022/01/08 12:39:54;;;;;;;21.92;12.32;;;3.30;99.90;;;;;;4950447;28;20502;-71
2022/01/08 12:42:19;;;;;;;25.92;13.60;;;3.30;99.90;;;;;;4967049;28;20591;-71
2022/01/08 12:45:13;;;;;;;26.30;13.93;;;3.30;99.90;;;;;;4957660;28;20030;-71
2022/01/08 12:48:09;;;;;;;24.58;13.82;;;3.30;99.90;;;;;;4955509;28;20039;-71
2022/01/08 12:50:36;;;;;;;23.30;13.48;;;3.30;99.90;;;;;;4960576;28;20034;-71
2022/01/08 12:53:11;;;;;;;26.50;14.05;;;3.20;99.90;;;;;;4962583;28;20035;-72
2022/01/08 12:55:48;;;;;;;28.02;15.02;;;3.20;99.90;;;;;;4966006;28;20470;-71
2022/01/08 12:58:17;;;;;;;33.83;14.95;;;3.20;99.90;;;;;;4954063;28;20058;-71
2022/01/08 13:00:59;;;;;;;28.38;15.18;;;3.20;99.90;;;;;;4958219;28;20108;-71
2022/01/08 13:03:37;;;;;;;26.45;14.98;;;3.10;99.90;;;;;;4956043;28;20391;-71
2022/01/08 13:06:10;;;;;;;24.77;14.77;;;3.10;99.90;;;;;;4963821;28;20070;-70
2022/01/08 13:08:36;;;;;;;25.58;15.00;;;3.10;99.90;;;;;;4960759;28;20548;-71
2022/01/08 13:11:04;;;;;;;24.55;14.63;;;3.10;99.90;;;;;;4956806;28;20074;-71